sensor_id;sensor_type;location;lat;lon;timestamp;P1;durP1;ratioP1;P2;durP2;ratioP2
527;SDS011;250;47.712;7.508;2022-09-01T00:00:07;8.63;;;7.10;;
527;SDS011;250;47.712;7.508;2022-09-01T00:02:37;8.77;;;7.60;;
527;SDS011;250;47.712;7.508;2022-09-01T00:05:05;9.57;;;8.57;;
527;SDS011;250;47.712;7.508;2022-09-01T00:07:33;10.50;;;8.13;;
527;SDS011;250;47.712;7.508;2022-09-01T00:10:00;9.37;;;8.43;;
527;SDS011;250;47.712;7.508;2022-09-01T00:12:31;11.80;;;8.20;;
527;SDS011;250;47.712;7.508;2022-09-01T00:14:59;9.23;;;8.30;;
527;SDS011;250;47.712;7.508;2022-09-01T00:17:26;7.20;;;6.23;;
527;SDS011;250;47.712;7.508;2022-09-01T00:19:54;10.30;;;8.40;;
527;SDS011;250;47.712;7.508;2022-09-01T00:22:21;11.17;;;9.23;;
527;SDS011;250;47.712;7.508;2022-09-01T00:24:48;12.60;;;9.77;;
527;SDS011;250;47.712;7.508;2022-09-01T00:27:15;10.50;;;9.43;;
527;SDS011;250;47.712;7.508;2022-09-01T00:29:42;8.97;;;7.60;;
527;SDS011;250;47.712;7.508;2022-09-01T00:32:11;10.00;;;8.67;;
527;SDS011;250;47.712;7.508;2022-09-01T00:34:38;9.27;;;8.37;;
527;SDS011;250;47.712;7.508;2022-09-01T00:37:05;9.30;;;8.37;;
527;SDS011;250;47.712;7.508;2022-09-01T00:39:32;9.93;;;8.90;;
527;SDS011;250;47.712;7.508;2022-09-01T00:41:59;12.33;;;11.03;;
527;SDS011;250;47.712;7.508;2022-09-01T00:44:26;17.23;;;13.63;;
527;SDS011;250;47.712;7.508;2022-09-01T00:46:54;16.30;;;13.60;;
527;SDS011;250;47.712;7.508;2022-09-01T00:49:25;15.63;;;14.13;;
527;SDS011;250;47.712;7.508;2022-09-01T00:51:59;24.87;;;16.47;;
527;SDS011;250;47.712;7.508;2022-09-01T00:54:30;20.20;;;18.00;;
527;SDS011;250;47.712;7.508;2022-09-01T00:57:00;18.47;;;16.27;;
527;SDS011;250;47.712;7.508;2022-09-01T00:59:29;20.00;;;15.60;;
527;SDS011;250;47.712;7.508;2022-09-01T01:01:58;19.37;;;14.90;;
527;SDS011;250;47.712;7.508;2022-09-01T01:04:26;17.67;;;13.97;;
527;SDS011;250;47.712;7.508;2022-09-01T01:06:55;18.57;;;14.70;;
527;SDS011;250;47.712;7.508;2022-09-01T01:09:26;28.97;;;17.20;;
527;SDS011;250;47.712;7.508;2022-09-01T01:11:55;27.73;;;17.50;;
527;SDS011;250;47.712;7.508;2022-09-01T01:14:24;24.70;;;18.93;;
527;SDS011;250;47.712;7.508;2022-09-01T01:16:53;22.67;;;19.60;;
527;SDS011;250;47.712;7.508;2022-09-01T01:19:22;28.60;;;19.27;;
527;SDS011;250;47.712;7.508;2022-09-01T01:22:15;20.93;;;17.30;;
527;SDS011;250;47.712;7.508;2022-09-01T01:25:05;24.90;;;18.97;;
527;SDS011;250;47.712;7.508;2022-09-01T01:27:33;26.60;;;19.80;;
527;SDS011;250;47.712;7.508;2022-09-01T01:30:02;27.53;;;21.10;;
527;SDS011;250;47.712;7.508;2022-09-01T01:32:34;36.73;;;21.60;;
527;SDS011;250;47.712;7.508;2022-09-01T01:35:01;32.50;;;20.70;;
527;SDS011;250;47.712;7.508;2022-09-01T01:37:30;27.97;;;20.57;;
527;SDS011;250;47.712;7.508;2022-09-01T01:39:57;58.50;;;21.70;;
527;SDS011;250;47.712;7.508;2022-09-01T01:42:25;35.13;;;21.67;;
527;SDS011;250;47.712;7.508;2022-09-01T01:44:53;29.50;;;20.83;;
527;SDS011;250;47.712;7.508;2022-09-01T01:47:21;30.53;;;20.37;;
527;SDS011;250;47.712;7.508;2022-09-01T01:49:49;45.70;;;20.30;;
527;SDS011;250;47.712;7.508;2022-09-01T01:52:18;46.67;;;20.30;;
527;SDS011;250;47.712;7.508;2022-09-01T01:54:45;42.80;;;20.40;;
527;SDS011;250;47.712;7.508;2022-09-01T01:57:12;28.53;;;18.67;;
527;SDS011;250;47.712;7.508;2022-09-01T01:59:42;20.43;;;17.60;;
527;SDS011;250;47.712;7.508;2022-09-01T02:02:09;47.63;;;16.77;;
527;SDS011;250;47.712;7.508;2022-09-01T02:04:37;35.10;;;16.67;;
527;SDS011;250;47.712;7.508;2022-09-01T02:07:07;58.60;;;19.73;;
527;SDS011;250;47.712;7.508;2022-09-01T02:09:36;38.87;;;17.73;;
527;SDS011;250;47.712;7.508;2022-09-01T02:12:05;29.03;;;18.17;;
527;SDS011;250;47.712;7.508;2022-09-01T02:14:33;43.70;;;17.97;;
527;SDS011;250;47.712;7.508;2022-09-01T02:17:02;33.97;;;20.07;;
527;SDS011;250;47.712;7.508;2022-09-01T02:19:30;24.47;;;19.00;;
527;SDS011;250;47.712;7.508;2022-09-01T02:21:57;40.13;;;19.30;;
527;SDS011;250;47.712;7.508;2022-09-01T02:24:24;47.80;;;21.90;;
527;SDS011;250;47.712;7.508;2022-09-01T02:26:56;37.73;;;19.77;;
527;SDS011;250;47.712;7.508;2022-09-01T02:29:24;49.00;;;22.70;;
527;SDS011;250;47.712;7.508;2022-09-01T02:31:53;36.13;;;22.50;;
527;SDS011;250;47.712;7.508;2022-09-01T02:34:22;32.07;;;23.10;;
527;SDS011;250;47.712;7.508;2022-09-01T02:36:52;36.30;;;21.57;;
527;SDS011;250;47.712;7.508;2022-09-01T02:39:22;27.90;;;22.50;;
527;SDS011;250;47.712;7.508;2022-09-01T02:41:51;42.03;;;23.30;;
527;SDS011;250;47.712;7.508;2022-09-01T02:44:18;50.03;;;24.30;;
527;SDS011;250;47.712;7.508;2022-09-01T02:46:46;39.90;;;23.07;;
527;SDS011;250;47.712;7.508;2022-09-01T02:49:14;48.63;;;23.63;;
527;SDS011;250;47.712;7.508;2022-09-01T02:51:46;38.93;;;22.40;;
527;SDS011;250;47.712;7.508;2022-09-01T02:54:15;23.00;;;18.00;;
527;SDS011;250;47.712;7.508;2022-09-01T02:56:43;37.80;;;20.47;;
527;SDS011;250;47.712;7.508;2022-09-01T02:59:12;33.43;;;17.00;;
527;SDS011;250;47.712;7.508;2022-09-01T03:01:40;17.63;;;15.23;;
527;SDS011;250;47.712;7.508;2022-09-01T03:04:11;23.10;;;16.93;;
527;SDS011;250;47.712;7.508;2022-09-01T03:06:39;30.73;;;15.87;;
527;SDS011;250;47.712;7.508;2022-09-01T03:09:09;23.37;;;16.47;;
527;SDS011;250;47.712;7.508;2022-09-01T03:11:39;27.40;;;17.50;;
527;SDS011;250;47.712;7.508;2022-09-01T03:14:07;21.63;;;15.33;;
527;SDS011;250;47.712;7.508;2022-09-01T03:16:35;19.93;;;14.70;;
527;SDS011;250;47.712;7.508;2022-09-01T03:19:03;30.13;;;18.00;;
527;SDS011;250;47.712;7.508;2022-09-01T03:21:33;19.60;;;15.43;;
527;SDS011;250;47.712;7.508;2022-09-01T03:24:01;17.20;;;15.23;;
527;SDS011;250;47.712;7.508;2022-09-01T03:26:30;19.10;;;16.47;;
527;SDS011;250;47.712;7.508;2022-09-01T03:28:57;14.30;;;12.80;;
527;SDS011;250;47.712;7.508;2022-09-01T03:31:24;12.20;;;10.93;;
527;SDS011;250;47.712;7.508;2022-09-01T03:33:52;10.00;;;8.60;;
527;SDS011;250;47.712;7.508;2022-09-01T03:36:21;9.80;;;8.90;;
527;SDS011;250;47.712;7.508;2022-09-01T03:38:49;10.23;;;9.23;;
527;SDS011;250;47.712;7.508;2022-09-01T03:41:18;11.40;;;10.20;;
527;SDS011;250;47.712;7.508;2022-09-01T03:43:51;11.23;;;10.13;;
527;SDS011;250;47.712;7.508;2022-09-01T03:46:22;11.50;;;10.30;;
527;SDS011;250;47.712;7.508;2022-09-01T03:48:52;11.87;;;10.67;;
527;SDS011;250;47.712;7.508;2022-09-01T03:51:23;16.17;;;11.30;;
527;SDS011;250;47.712;7.508;2022-09-01T03:53:52;17.93;;;12.13;;
527;SDS011;250;47.712;7.508;2022-09-01T03:56:21;22.83;;;13.90;;
527;SDS011;250;47.712;7.508;2022-09-01T03:58:52;26.90;;;14.70;;
527;SDS011;250;47.712;7.508;2022-09-01T04:01:21;57.13;;;16.20;;
527;SDS011;250;47.712;7.508;2022-09-01T04:03:48;45.13;;;16.70;;
527;SDS011;250;47.712;7.508;2022-09-01T04:06:16;20.83;;;14.60;;
527;SDS011;250;47.712;7.508;2022-09-01T04:08:44;26.80;;;14.77;;
527;SDS011;250;47.712;7.508;2022-09-01T04:11:13;17.90;;;13.77;;
527;SDS011;250;47.712;7.508;2022-09-01T04:13:43;17.13;;;15.40;;
527;SDS011;250;47.712;7.508;2022-09-01T04:16:19;21.00;;;12.17;;
527;SDS011;250;47.712;7.508;2022-09-01T04:19:06;14.17;;;12.70;;
527;SDS011;250;47.712;7.508;2022-09-01T04:21:44;14.17;;;12.77;;
527;SDS011;250;47.712;7.508;2022-09-01T04:24:11;26.40;;;12.90;;
527;SDS011;250;47.712;7.508;2022-09-01T04:26:39;24.57;;;13.40;;
527;SDS011;250;47.712;7.508;2022-09-01T04:29:06;14.00;;;12.50;;
527;SDS011;250;47.712;7.508;2022-09-01T04:31:37;17.90;;;13.47;;
527;SDS011;250;47.712;7.508;2022-09-01T04:34:06;19.53;;;13.70;;
527;SDS011;250;47.712;7.508;2022-09-01T04:36:38;24.70;;;13.87;;
527;SDS011;250;47.712;7.508;2022-09-01T04:39:08;16.90;;;13.80;;
527;SDS011;250;47.712;7.508;2022-09-01T04:41:38;16.13;;;13.37;;
527;SDS011;250;47.712;7.508;2022-09-01T04:44:06;17.37;;;13.30;;
527;SDS011;250;47.712;7.508;2022-09-01T04:46:35;18.70;;;14.40;;
527;SDS011;250;47.712;7.508;2022-09-01T04:49:06;31.53;;;15.37;;
527;SDS011;250;47.712;7.508;2022-09-01T04:51:36;17.10;;;15.30;;
527;SDS011;250;47.712;7.508;2022-09-01T04:54:04;23.47;;;17.23;;
527;SDS011;250;47.712;7.508;2022-09-01T04:56:39;36.50;;;18.07;;
527;SDS011;250;47.712;7.508;2022-09-01T04:59:07;19.63;;;17.20;;
527;SDS011;250;47.712;7.508;2022-09-01T05:01:36;39.43;;;18.07;;
527;SDS011;250;47.712;7.508;2022-09-01T05:04:09;27.33;;;18.90;;
527;SDS011;250;47.712;7.508;2022-09-01T05:06:39;18.70;;;16.70;;
527;SDS011;250;47.712;7.508;2022-09-01T05:09:08;19.90;;;17.80;;
527;SDS011;250;47.712;7.508;2022-09-01T05:11:36;27.17;;;16.23;;
527;SDS011;250;47.712;7.508;2022-09-01T05:14:04;44.67;;;17.07;;
527;SDS011;250;47.712;7.508;2022-09-01T05:16:32;41.33;;;17.90;;
527;SDS011;250;47.712;7.508;2022-09-01T05:19:03;17.90;;;16.00;;
527;SDS011;250;47.712;7.508;2022-09-01T05:21:30;16.87;;;14.90;;
527;SDS011;250;47.712;7.508;2022-09-01T05:23:58;20.60;;;15.63;;
527;SDS011;250;47.712;7.508;2022-09-01T05:26:28;19.80;;;15.93;;
527;SDS011;250;47.712;7.508;2022-09-01T05:28:59;19.87;;;15.43;;
527;SDS011;250;47.712;7.508;2022-09-01T05:31:28;18.40;;;16.20;;
527;SDS011;250;47.712;7.508;2022-09-01T05:33:58;18.93;;;15.50;;
527;SDS011;250;47.712;7.508;2022-09-01T05:36:28;22.43;;;15.50;;
527;SDS011;250;47.712;7.508;2022-09-01T05:38:58;18.27;;;16.37;;
527;SDS011;250;47.712;7.508;2022-09-01T05:41:25;17.47;;;15.40;;
527;SDS011;250;47.712;7.508;2022-09-01T05:43:53;17.27;;;15.07;;
527;SDS011;250;47.712;7.508;2022-09-01T05:46:21;17.33;;;15.00;;
527;SDS011;250;47.712;7.508;2022-09-01T05:48:51;29.50;;;17.00;;
527;SDS011;250;47.712;7.508;2022-09-01T05:51:21;17.53;;;15.67;;
527;SDS011;250;47.712;7.508;2022-09-01T05:53:52;23.97;;;16.57;;
527;SDS011;250;47.712;7.508;2022-09-01T05:56:20;19.27;;;17.20;;
527;SDS011;250;47.712;7.508;2022-09-01T05:58:48;30.80;;;17.77;;
527;SDS011;250;47.712;7.508;2022-09-01T06:01:15;27.10;;;19.40;;
527;SDS011;250;47.712;7.508;2022-09-01T06:03:46;21.40;;;19.10;;
527;SDS011;250;47.712;7.508;2022-09-01T06:06:19;20.70;;;18.10;;
527;SDS011;250;47.712;7.508;2022-09-01T06:08:47;19.23;;;16.60;;
527;SDS011;250;47.712;7.508;2022-09-01T06:11:16;22.80;;;18.63;;
527;SDS011;250;47.712;7.508;2022-09-01T06:13:43;19.00;;;17.00;;
527;SDS011;250;47.712;7.508;2022-09-01T06:16:11;19.60;;;17.17;;
527;SDS011;250;47.712;7.508;2022-09-01T06:18:40;21.43;;;17.77;;
527;SDS011;250;47.712;7.508;2022-09-01T06:21:08;21.37;;;19.00;;
527;SDS011;250;47.712;7.508;2022-09-01T06:23:39;20.07;;;17.90;;
527;SDS011;250;47.712;7.508;2022-09-01T06:26:06;21.20;;;17.70;;
527;SDS011;250;47.712;7.508;2022-09-01T06:28:43;16.57;;;14.77;;
527;SDS011;250;47.712;7.508;2022-09-01T06:31:10;19.27;;;17.10;;
527;SDS011;250;47.712;7.508;2022-09-01T06:33:37;18.70;;;16.80;;
527;SDS011;250;47.712;7.508;2022-09-01T06:36:04;19.50;;;17.40;;
527;SDS011;250;47.712;7.508;2022-09-01T06:38:33;20.50;;;16.40;;
527;SDS011;250;47.712;7.508;2022-09-01T06:41:02;17.53;;;15.57;;
527;SDS011;250;47.712;7.508;2022-09-01T06:43:36;18.73;;;16.80;;
527;SDS011;250;47.712;7.508;2022-09-01T06:46:04;16.90;;;14.93;;
527;SDS011;250;47.712;7.508;2022-09-01T06:48:33;17.30;;;15.13;;
527;SDS011;250;47.712;7.508;2022-09-01T06:51:01;19.07;;;15.87;;
527;SDS011;250;47.712;7.508;2022-09-01T06:53:29;20.00;;;15.73;;
527;SDS011;250;47.712;7.508;2022-09-01T06:55:57;17.47;;;15.70;;
527;SDS011;250;47.712;7.508;2022-09-01T06:58:24;17.77;;;15.97;;
527;SDS011;250;47.712;7.508;2022-09-01T07:00:53;18.50;;;16.07;;
527;SDS011;250;47.712;7.508;2022-09-01T07:03:20;22.40;;;14.87;;
527;SDS011;250;47.712;7.508;2022-09-01T07:05:49;22.23;;;15.10;;
527;SDS011;250;47.712;7.508;2022-09-01T07:08:17;16.20;;;14.60;;
527;SDS011;250;47.712;7.508;2022-09-01T07:10:46;15.80;;;14.10;;
527;SDS011;250;47.712;7.508;2022-09-01T07:13:16;16.60;;;14.90;;
527;SDS011;250;47.712;7.508;2022-09-01T07:15:48;16.20;;;14.50;;
527;SDS011;250;47.712;7.508;2022-09-01T07:18:18;17.30;;;13.77;;
527;SDS011;250;47.712;7.508;2022-09-01T07:20:49;16.20;;;14.47;;
527;SDS011;250;47.712;7.508;2022-09-01T07:23:18;15.60;;;14.00;;
527;SDS011;250;47.712;7.508;2022-09-01T07:25:47;16.83;;;15.07;;
527;SDS011;250;47.712;7.508;2022-09-01T07:28:19;15.60;;;13.97;;
527;SDS011;250;47.712;7.508;2022-09-01T07:30:48;16.13;;;14.40;;
527;SDS011;250;47.712;7.508;2022-09-01T07:33:19;14.60;;;12.73;;
527;SDS011;250;47.712;7.508;2022-09-01T07:35:48;14.97;;;13.37;;
527;SDS011;250;47.712;7.508;2022-09-01T07:38:17;13.03;;;11.70;;
527;SDS011;250;47.712;7.508;2022-09-01T07:40:45;15.20;;;12.70;;
527;SDS011;250;47.712;7.508;2022-09-01T07:43:14;13.43;;;12.10;;
527;SDS011;250;47.712;7.508;2022-09-01T07:45:46;14.70;;;12.20;;
527;SDS011;250;47.712;7.508;2022-09-01T07:48:15;14.13;;;12.63;;
527;SDS011;250;47.712;7.508;2022-09-01T07:50:46;11.60;;;10.40;;
527;SDS011;250;47.712;7.508;2022-09-01T07:53:17;13.77;;;12.40;;
527;SDS011;250;47.712;7.508;2022-09-01T07:55:47;11.90;;;10.60;;
527;SDS011;250;47.712;7.508;2022-09-01T07:58:16;14.10;;;11.83;;
527;SDS011;250;47.712;7.508;2022-09-01T08:00:46;12.73;;;11.27;;
527;SDS011;250;47.712;7.508;2022-09-01T08:03:13;11.90;;;10.73;;
527;SDS011;250;47.712;7.508;2022-09-01T08:05:42;11.87;;;10.20;;
527;SDS011;250;47.712;7.508;2022-09-01T08:08:10;12.40;;;9.90;;
527;SDS011;250;47.712;7.508;2022-09-01T08:10:37;12.87;;;11.10;;
527;SDS011;250;47.712;7.508;2022-09-01T08:13:05;10.97;;;9.80;;
527;SDS011;250;47.712;7.508;2022-09-01T08:15:32;12.13;;;9.83;;
527;SDS011;250;47.712;7.508;2022-09-01T08:17:59;10.50;;;9.40;;
527;SDS011;250;47.712;7.508;2022-09-01T08:20:26;9.80;;;8.80;;
527;SDS011;250;47.712;7.508;2022-09-01T08:22:54;11.97;;;8.70;;
527;SDS011;250;47.712;7.508;2022-09-01T08:25:22;9.27;;;8.30;;
527;SDS011;250;47.712;7.508;2022-09-01T08:27:50;10.20;;;8.70;;
527;SDS011;250;47.712;7.508;2022-09-01T08:30:17;10.00;;;7.77;;
527;SDS011;250;47.712;7.508;2022-09-01T08:32:44;9.00;;;7.67;;
527;SDS011;250;47.712;7.508;2022-09-01T08:35:11;9.57;;;6.80;;
527;SDS011;250;47.712;7.508;2022-09-01T08:37:40;8.53;;;7.60;;
527;SDS011;250;47.712;7.508;2022-09-01T08:40:09;8.70;;;6.80;;
527;SDS011;250;47.712;7.508;2022-09-01T08:42:46;7.10;;;6.40;;
527;SDS011;250;47.712;7.508;2022-09-01T08:45:21;5.97;;;5.37;;
527;SDS011;250;47.712;7.508;2022-09-01T08:47:52;6.67;;;5.97;;
527;SDS011;250;47.712;7.508;2022-09-01T08:50:24;5.87;;;5.30;;
527;SDS011;250;47.712;7.508;2022-09-01T08:52:53;6.57;;;5.90;;
527;SDS011;250;47.712;7.508;2022-09-01T08:55:30;9.00;;;6.37;;
527;SDS011;250;47.712;7.508;2022-09-01T08:58:04;7.60;;;6.90;;
527;SDS011;250;47.712;7.508;2022-09-01T09:00:33;8.23;;;6.20;;
527;SDS011;250;47.712;7.508;2022-09-01T09:03:11;7.10;;;6.50;;
527;SDS011;250;47.712;7.508;2022-09-01T09:05:55;6.90;;;6.30;;
527;SDS011;250;47.712;7.508;2022-09-01T09:08:32;7.47;;;6.63;;
527;SDS011;250;47.712;7.508;2022-09-01T09:11:33;8.37;;;7.07;;
527;SDS011;250;47.712;7.508;2022-09-01T09:17:16;13.67;;;7.23;;
527;SDS011;250;47.712;7.508;2022-09-01T09:19:47;7.73;;;6.00;;
527;SDS011;250;47.712;7.508;2022-09-01T09:22:15;8.20;;;6.33;;
527;SDS011;250;47.712;7.508;2022-09-01T09:24:44;5.63;;;5.00;;
527;SDS011;250;47.712;7.508;2022-09-01T09:27:16;5.43;;;4.97;;
527;SDS011;250;47.712;7.508;2022-09-01T09:29:46;10.40;;;5.30;;
527;SDS011;250;47.712;7.508;2022-09-01T09:32:16;6.43;;;5.47;;
527;SDS011;250;47.712;7.508;2022-09-01T09:34:43;6.00;;;5.40;;
527;SDS011;250;47.712;7.508;2022-09-01T09:37:24;6.57;;;5.77;;
527;SDS011;250;47.712;7.508;2022-09-01T09:40:04;6.33;;;5.40;;
527;SDS011;250;47.712;7.508;2022-09-01T09:42:34;5.67;;;5.07;;
527;SDS011;250;47.712;7.508;2022-09-01T09:45:06;6.43;;;4.87;;
527;SDS011;250;47.712;7.508;2022-09-01T09:47:46;5.50;;;5.00;;
527;SDS011;250;47.712;7.508;2022-09-01T09:50:18;6.83;;;5.60;;
527;SDS011;250;47.712;7.508;2022-09-01T09:52:47;6.30;;;5.70;;
527;SDS011;250;47.712;7.508;2022-09-01T09:55:21;6.57;;;5.30;;
527;SDS011;250;47.712;7.508;2022-09-01T09:57:52;9.70;;;5.90;;
527;SDS011;250;47.712;7.508;2022-09-01T10:00:25;6.70;;;4.93;;
527;SDS011;250;47.712;7.508;2022-09-01T10:02:55;4.83;;;4.43;;
527;SDS011;250;47.712;7.508;2022-09-01T10:05:36;6.03;;;5.37;;
527;SDS011;250;47.712;7.508;2022-09-01T10:08:06;5.93;;;5.33;;
527;SDS011;250;47.712;7.508;2022-09-01T10:10:37;6.83;;;5.60;;
527;SDS011;250;47.712;7.508;2022-09-01T10:13:07;6.10;;;5.47;;
527;SDS011;250;47.712;7.508;2022-09-01T10:15:38;5.40;;;4.90;;
527;SDS011;250;47.712;7.508;2022-09-01T10:18:08;6.10;;;5.37;;
527;SDS011;250;47.712;7.508;2022-09-01T10:20:40;6.10;;;5.30;;
527;SDS011;250;47.712;7.508;2022-09-01T10:23:14;5.17;;;4.67;;
527;SDS011;250;47.712;7.508;2022-09-01T10:25:41;4.57;;;4.17;;
527;SDS011;250;47.712;7.508;2022-09-01T10:28:10;8.77;;;7.60;;
527;SDS011;250;47.712;7.508;2022-09-01T10:30:43;8.23;;;7.43;;
527;SDS011;250;47.712;7.508;2022-09-01T10:33:13;10.50;;;8.27;;
527;SDS011;250;47.712;7.508;2022-09-01T10:35:42;9.33;;;7.80;;
527;SDS011;250;47.712;7.508;2022-09-01T10:38:14;10.93;;;8.70;;
527;SDS011;250;47.712;7.508;2022-09-01T10:40:44;10.73;;;8.27;;
527;SDS011;250;47.712;7.508;2022-09-01T10:43:21;8.03;;;7.10;;
527;SDS011;250;47.712;7.508;2022-09-01T10:45:52;14.43;;;9.23;;
527;SDS011;250;47.712;7.508;2022-09-01T10:48:28;11.70;;;10.50;;
527;SDS011;250;47.712;7.508;2022-09-01T10:53:58;10.27;;;9.00;;
527;SDS011;250;47.712;7.508;2022-09-01T10:56:26;10.03;;;9.03;;
527;SDS011;250;47.712;7.508;2022-09-01T10:59:06;9.10;;;8.30;;
527;SDS011;250;47.712;7.508;2022-09-01T11:07:39;8.23;;;7.53;;
527;SDS011;250;47.712;7.508;2022-09-01T11:10:16;10.90;;;9.87;;
527;SDS011;250;47.712;7.508;2022-09-01T11:13:06;9.80;;;8.40;;
527;SDS011;250;47.712;7.508;2022-09-01T11:15:46;10.00;;;8.60;;
527;SDS011;250;47.712;7.508;2022-09-01T11:18:15;9.13;;;8.27;;
527;SDS011;250;47.712;7.508;2022-09-01T11:20:45;8.00;;;7.20;;
527;SDS011;250;47.712;7.508;2022-09-01T11:23:19;7.93;;;7.23;;
527;SDS011;250;47.712;7.508;2022-09-01T11:25:50;8.97;;;7.70;;
527;SDS011;250;47.712;7.508;2022-09-01T11:31:14;9.53;;;8.57;;
527;SDS011;250;47.712;7.508;2022-09-01T11:36:56;8.77;;;7.87;;
527;SDS011;250;47.712;7.508;2022-09-01T11:39:32;10.57;;;9.47;;
527;SDS011;250;47.712;7.508;2022-09-01T11:42:05;9.80;;;8.67;;
527;SDS011;250;47.712;7.508;2022-09-01T11:44:38;10.23;;;9.23;;
527;SDS011;250;47.712;7.508;2022-09-01T11:47:10;10.57;;;9.47;;
527;SDS011;250;47.712;7.508;2022-09-01T11:49:46;9.00;;;8.20;;
527;SDS011;250;47.712;7.508;2022-09-01T11:52:18;9.00;;;8.10;;
527;SDS011;250;47.712;7.508;2022-09-01T11:54:48;8.83;;;7.60;;
527;SDS011;250;47.712;7.508;2022-09-01T11:57:17;10.67;;;7.87;;
527;SDS011;250;47.712;7.508;2022-09-01T11:59:46;8.80;;;8.00;;
527;SDS011;250;47.712;7.508;2022-09-01T12:02:17;7.40;;;6.30;;
527;SDS011;250;47.712;7.508;2022-09-01T12:04:47;8.70;;;7.80;;
527;SDS011;250;47.712;7.508;2022-09-01T12:07:24;8.47;;;6.20;;
527;SDS011;250;47.712;7.508;2022-09-01T12:09:55;9.17;;;7.37;;
527;SDS011;250;47.712;7.508;2022-09-01T12:12:30;8.83;;;7.03;;
527;SDS011;250;47.712;7.508;2022-09-01T12:14:58;8.20;;;6.73;;
527;SDS011;250;47.712;7.508;2022-09-01T12:17:27;7.10;;;6.40;;
527;SDS011;250;47.712;7.508;2022-09-01T12:19:54;10.80;;;6.90;;
527;SDS011;250;47.712;7.508;2022-09-01T12:22:21;6.50;;;5.83;;
527;SDS011;250;47.712;7.508;2022-09-01T12:24:50;8.20;;;6.30;;
527;SDS011;250;47.712;7.508;2022-09-01T12:27:19;6.77;;;6.10;;
527;SDS011;250;47.712;7.508;2022-09-01T12:29:48;8.57;;;4.93;;
527;SDS011;250;47.712;7.508;2022-09-01T12:32:15;6.40;;;5.80;;
527;SDS011;250;47.712;7.508;2022-09-01T12:34:44;7.13;;;5.87;;
527;SDS011;250;47.712;7.508;2022-09-01T12:37:18;7.43;;;6.60;;
527;SDS011;250;47.712;7.508;2022-09-01T12:39:50;7.70;;;6.90;;
527;SDS011;250;47.712;7.508;2022-09-01T12:42:22;5.83;;;5.10;;
527;SDS011;250;47.712;7.508;2022-09-01T12:44:52;8.17;;;6.73;;
527;SDS011;250;47.712;7.508;2022-09-01T12:53:22;8.00;;;6.90;;
527;SDS011;250;47.712;7.508;2022-09-01T12:55:56;9.03;;;6.07;;
527;SDS011;250;47.712;7.508;2022-09-01T12:58:27;6.93;;;6.23;;
527;SDS011;250;47.712;7.508;2022-09-01T13:00:57;6.80;;;5.93;;
527;SDS011;250;47.712;7.508;2022-09-01T13:03:26;8.70;;;7.80;;
527;SDS011;250;47.712;7.508;2022-09-01T13:05:54;7.73;;;6.90;;
527;SDS011;250;47.712;7.508;2022-09-01T13:08:23;8.70;;;7.40;;
527;SDS011;250;47.712;7.508;2022-09-01T13:10:53;9.53;;;8.40;;
527;SDS011;250;47.712;7.508;2022-09-01T13:13:23;9.30;;;8.40;;
527;SDS011;250;47.712;7.508;2022-09-01T13:15:52;9.37;;;7.20;;
527;SDS011;250;47.712;7.508;2022-09-01T13:18:21;7.93;;;6.80;;
527;SDS011;250;47.712;7.508;2022-09-01T13:20:49;8.07;;;6.77;;
527;SDS011;250;47.712;7.508;2022-09-01T13:23:18;9.00;;;7.50;;
527;SDS011;250;47.712;7.508;2022-09-01T13:25:46;8.30;;;7.50;;
527;SDS011;250;47.712;7.508;2022-09-01T13:28:13;7.17;;;6.47;;
527;SDS011;250;47.712;7.508;2022-09-01T13:30:43;6.10;;;5.50;;
527;SDS011;250;47.712;7.508;2022-09-01T13:33:13;6.90;;;6.20;;
527;SDS011;250;47.712;7.508;2022-09-01T13:35:40;7.10;;;5.70;;
527;SDS011;250;47.712;7.508;2022-09-01T13:38:07;6.70;;;6.10;;
527;SDS011;250;47.712;7.508;2022-09-01T13:40:34;7.17;;;6.47;;
527;SDS011;250;47.712;7.508;2022-09-01T13:43:01;6.80;;;6.10;;
527;SDS011;250;47.712;7.508;2022-09-01T13:45:28;6.23;;;5.63;;
527;SDS011;250;47.712;7.508;2022-09-01T13:47:57;9.33;;;6.07;;
527;SDS011;250;47.712;7.508;2022-09-01T13:50:24;5.80;;;5.20;;
527;SDS011;250;47.712;7.508;2022-09-01T13:52:54;7.30;;;4.83;;
527;SDS011;250;47.712;7.508;2022-09-01T13:55:22;7.03;;;5.40;;
527;SDS011;250;47.712;7.508;2022-09-01T13:57:51;5.30;;;4.73;;
527;SDS011;250;47.712;7.508;2022-09-01T14:00:19;7.00;;;5.70;;
527;SDS011;250;47.712;7.508;2022-09-01T14:02:49;7.97;;;6.27;;
527;SDS011;250;47.712;7.508;2022-09-01T14:05:20;7.20;;;6.60;;
527;SDS011;250;47.712;7.508;2022-09-01T14:07:49;7.00;;;5.70;;
527;SDS011;250;47.712;7.508;2022-09-01T14:10:16;6.13;;;5.53;;
527;SDS011;250;47.712;7.508;2022-09-01T14:12:44;6.50;;;5.47;;
527;SDS011;250;47.712;7.508;2022-09-01T14:15:12;5.90;;;5.40;;
527;SDS011;250;47.712;7.508;2022-09-01T14:17:40;5.70;;;5.00;;
527;SDS011;250;47.712;7.508;2022-09-01T14:20:09;6.27;;;5.67;;
527;SDS011;250;47.712;7.508;2022-09-01T14:22:39;6.17;;;5.40;;
527;SDS011;250;47.712;7.508;2022-09-01T14:25:07;5.60;;;5.10;;
527;SDS011;250;47.712;7.508;2022-09-01T14:27:37;5.00;;;4.30;;
527;SDS011;250;47.712;7.508;2022-09-01T14:30:05;5.93;;;4.73;;
527;SDS011;250;47.712;7.508;2022-09-01T14:32:34;5.60;;;5.10;;
527;SDS011;250;47.712;7.508;2022-09-01T14:35:01;7.10;;;4.40;;
527;SDS011;250;47.712;7.508;2022-09-01T14:37:32;6.17;;;5.57;;
527;SDS011;250;47.712;7.508;2022-09-01T14:40:00;5.50;;;4.20;;
527;SDS011;250;47.712;7.508;2022-09-01T14:42:28;4.67;;;4.13;;
527;SDS011;250;47.712;7.508;2022-09-01T14:44:55;5.43;;;4.83;;
527;SDS011;250;47.712;7.508;2022-09-01T14:47:23;5.10;;;4.60;;
527;SDS011;250;47.712;7.508;2022-09-01T14:49:50;5.53;;;5.03;;
527;SDS011;250;47.712;7.508;2022-09-01T14:52:17;5.17;;;4.67;;
527;SDS011;250;47.712;7.508;2022-09-01T14:54:46;9.57;;;4.93;;
527;SDS011;250;47.712;7.508;2022-09-01T14:57:15;5.23;;;4.70;;
527;SDS011;250;47.712;7.508;2022-09-01T14:59:42;5.30;;;4.80;;
527;SDS011;250;47.712;7.508;2022-09-01T15:02:09;6.33;;;5.10;;
527;SDS011;250;47.712;7.508;2022-09-01T15:04:36;4.90;;;4.40;;
527;SDS011;250;47.712;7.508;2022-09-01T15:07:03;5.27;;;4.77;;
527;SDS011;250;47.712;7.508;2022-09-01T15:09:31;4.63;;;4.23;;
527;SDS011;250;47.712;7.508;2022-09-01T15:11:58;5.00;;;4.50;;
527;SDS011;250;47.712;7.508;2022-09-01T15:14:27;5.73;;;4.33;;
527;SDS011;250;47.712;7.508;2022-09-01T15:16:54;4.27;;;3.80;;
527;SDS011;250;47.712;7.508;2022-09-01T15:19:21;4.97;;;4.50;;
527;SDS011;250;47.712;7.508;2022-09-01T15:21:48;5.40;;;4.37;;
527;SDS011;250;47.712;7.508;2022-09-01T15:24:15;8.73;;;4.60;;
527;SDS011;250;47.712;7.508;2022-09-01T15:26:43;4.70;;;4.13;;
527;SDS011;250;47.712;7.508;2022-09-01T15:29:11;4.70;;;4.20;;
527;SDS011;250;47.712;7.508;2022-09-01T15:31:41;5.20;;;4.33;;
527;SDS011;250;47.712;7.508;2022-09-01T15:34:09;4.43;;;3.50;;
527;SDS011;250;47.712;7.508;2022-09-01T15:36:37;4.57;;;3.63;;
527;SDS011;250;47.712;7.508;2022-09-01T15:39:06;4.80;;;4.17;;
527;SDS011;250;47.712;7.508;2022-09-01T15:41:34;4.70;;;4.30;;
527;SDS011;250;47.712;7.508;2022-09-01T15:44:03;5.40;;;4.00;;
527;SDS011;250;47.712;7.508;2022-09-01T15:46:32;4.43;;;3.63;;
527;SDS011;250;47.712;7.508;2022-09-01T15:49:02;4.07;;;3.40;;
527;SDS011;250;47.712;7.508;2022-09-01T15:51:31;3.80;;;3.40;;
527;SDS011;250;47.712;7.508;2022-09-01T15:54:01;3.90;;;3.57;;
527;SDS011;250;47.712;7.508;2022-09-01T15:56:29;5.90;;;3.80;;
527;SDS011;250;47.712;7.508;2022-09-01T15:58:57;4.90;;;4.40;;
527;SDS011;250;47.712;7.508;2022-09-01T16:01:25;4.03;;;3.30;;
527;SDS011;250;47.712;7.508;2022-09-01T16:03:53;4.70;;;4.20;;
527;SDS011;250;47.712;7.508;2022-09-01T16:06:22;3.40;;;3.10;;
527;SDS011;250;47.712;7.508;2022-09-01T16:08:50;4.33;;;3.70;;